Time;durP1;ratioP1;P1;durP2;ratioP2;P2;SDS_P1;SDS_P2;PMS_P1;PMS_P2;Temp;Humidity;BMP_temperature;BMP_pressure;BME280_temperature;BME280_humidity;BME280_pressure;Samples;Min_cycle;Max_cycle;Signal;HPM_P1;HPM_P2
2021/05/05 00:00:00;;;;;;;8.95;5.53;;;;;;;6.99;52.47;99161.86;1735062;82;21172;-74
2021/05/05 00:02:27;;;;;;;9.03;6.40;;;;;;;7.00;52.55;99158.78;1724296;82;21163;-74
2021/05/05 00:04:54;;;;;;;9.90;6.20;;;;;;;7.00;52.41;99154.34;1725627;82;21174;-73
2021/05/05 00:07:22;;;;;;;9.15;6.72;;;;;;;7.02;52.41;99148.98;1726599;83;21152;-73
2021/05/05 00:09:50;;;;;;;10.18;6.87;;;;;;;7.02;52.51;99147.22;1730485;83;21188;-73
2021/05/05 00:12:17;;;;;;;10.08;6.83;;;;;;;7.03;52.56;99156.80;1711089;84;21293;-73
2021/05/05 00:14:45;;;;;;;10.15;7.37;;;;;;;7.04;52.50;99151.05;1730685;83;21153;-74
2021/05/05 00:17:12;;;;;;;8.90;6.55;;;;;;;7.05;52.60;99150.12;1725688;82;21706;-73
2021/05/05 00:19:41;;;;;;;11.68;7.28;;;;;;;7.06;52.65;99143.92;1717898;83;21636;-74
2021/05/05 00:22:08;;;;;;;9.00;6.62;;;;;;;7.07;52.67;99152.64;1718462;83;21111;-74
2021/05/05 00:24:35;;;;;;;9.68;6.83;;;;;;;7.06;52.73;99142.61;1724342;83;21181;-74
2021/05/05 00:27:02;;;;;;;9.78;6.22;;;;;;;7.07;52.83;99144.75;1722863;83;21546;-73
2021/05/05 00:29:30;;;;;;;10.13;6.70;;;;;;;7.07;52.76;99152.64;1698632;84;21174;-72
2021/05/05 00:31:57;;;;;;;8.18;6.40;;;;;;;7.06;52.83;99145.23;1728586;83;21334;-73
2021/05/05 00:34:25;;;;;;;7.87;6.08;;;;;;;7.03;52.94;99142.34;1728893;82;21192;-73
2021/05/05 00:36:54;;;;;;;7.65;5.83;;;;;;;7.02;53.05;99141.09;1729920;82;21281;-72
2021/05/05 00:39:21;;;;;;;9.75;5.75;;;;;;;6.99;53.02;99151.34;1719496;83;21571;-73
2021/05/05 00:41:48;;;;;;;7.97;5.78;;;;;;;6.97;53.02;99144.05;1722619;83;21145;-73
2021/05/05 00:44:17;;;;;;;8.15;5.42;;;;;;;6.95;53.12;99144.61;1710809;84;21201;-73
2021/05/05 00:46:44;;;;;;;8.08;5.55;;;;;;;6.93;53.18;99129.42;1713500;84;21189;-72
2021/05/05 00:49:12;;;;;;;7.25;5.70;;;;;;;6.92;53.18;99129.05;1729949;82;21302;-73
2021/05/05 00:51:40;;;;;;;7.33;5.40;;;;;;;6.89;53.22;99135.80;1717843;83;21576;-72
2021/05/05 00:54:07;;;;;;;8.68;5.22;;;;;;;6.86;53.40;99137.33;1720209;83;21170;-73
2021/05/05 00:56:35;;;;;;;6.47;5.08;;;;;;;6.84;53.39;99144.00;1726093;83;21179;-73
2021/05/05 00:59:03;;;;;;;9.03;5.25;;;;;;;6.83;53.38;99141.45;1697064;84;21127;-74
2021/05/05 01:01:31;;;;;;;8.28;5.50;;;;;;;6.81;53.50;99138.92;1711465;84;21780;-74
2021/05/05 01:03:58;;;;;;;7.40;5.03;;;;;;;6.80;53.51;99140.34;1723775;83;21563;-74
2021/05/05 01:06:26;;;;;;;7.72;5.50;;;;;;;6.78;53.61;99130.39;1725059;82;21204;-74
2021/05/05 01:08:55;;;;;;;10.32;5.70;;;;;;;6.76;53.61;99133.61;1730072;83;21326;-74
2021/05/05 01:11:22;;;;;;;9.53;5.75;;;;;;;6.74;53.70;99124.52;1730071;83;21160;-74
2021/05/05 01:13:50;;;;;;;8.23;5.42;;;;;;;6.73;53.78;99121.51;1692249;85;21103;-75
2021/05/05 01:16:18;;;;;;;8.05;5.15;;;;;;;6.71;53.91;99122.06;1669618;85;21207;-73
2021/05/05 01:18:45;;;;;;;7.95;5.10;;;;;;;6.69;53.92;99125.28;1682432;85;21576;-75
2021/05/05 01:21:13;;;;;;;6.62;5.12;;;;;;;6.67;54.01;99120.09;1681986;85;21194;-74
2021/05/05 01:23:41;;;;;;;7.35;4.97;;;;;;;6.65;54.09;99116.75;1681701;85;21190;-74
2021/05/05 01:26:08;;;;;;;7.83;5.50;;;;;;;6.63;54.15;99127.81;1694421;85;21683;-74
2021/05/05 01:28:41;;;;;;;8.40;4.95;;;;;;;6.62;54.24;99122.18;1691669;85;21181;-74
2021/05/05 01:31:12;;;;;;;7.65;5.10;;;;;;;6.60;54.33;99114.89;1730264;83;21671;-74
2021/05/05 01:33:40;;;;;;;10.63;5.30;;;;;;;6.58;54.39;99111.50;1728775;82;21342;-75
2021/05/05 01:36:10;;;;;;;7.22;5.28;;;;;;;6.56;54.48;99112.09;1717770;83;21159;-74
2021/05/05 01:38:39;;;;;;;9.90;5.53;;;;;;;6.55;54.49;99107.77;1718488;83;21179;-74
2021/05/05 01:41:06;;;;;;;8.00;5.03;;;;;;;6.53;54.53;99110.50;1690907;85;22139;-74
2021/05/05 01:43:34;;;;;;;8.30;5.15;;;;;;;6.53;54.61;99113.58;1728232;83;21152;-74
2021/05/05 01:46:05;;;;;;;8.53;5.45;;;;;;;6.52;54.70;99105.32;1727392;83;21188;-73
2021/05/05 01:48:32;;;;;;;7.85;5.67;;;;;;;6.50;54.72;99101.97;1717712;83;21182;-73
2021/05/05 01:51:00;;;;;;;7.85;5.15;;;;;;;6.49;54.80;99102.91;1720646;83;21155;-74
2021/05/05 01:53:30;;;;;;;8.75;5.30;;;;;;;6.48;54.90;99104.67;1720519;83;21139;-74
2021/05/05 01:55:57;;;;;;;7.10;5.10;;;;;;;6.47;54.94;99110.03;1721594;83;21722;-74
2021/05/05 01:58:25;;;;;;;7.62;5.83;;;;;;;6.48;54.98;99098.59;1689207;83;21321;-74
2021/05/05 02:00:55;;;;;;;10.05;5.53;;;;;;;6.48;55.02;99093.33;1729632;83;21621;-74
2021/05/05 02:03:24;;;;;;;6.40;4.85;;;;;;;6.48;55.10;99097.27;1727598;82;21287;-74
2021/05/05 02:06:02;;;;;;;6.70;5.00;;;;;;;6.48;55.20;99103.84;1719597;82;22404;-74
2021/05/05 02:08:40;;;;;;;7.08;5.40;;;;;;;6.52;55.26;99093.50;1816287;78;23525;-73
2021/05/05 02:11:08;;;;;;;8.98;5.40;;;;;;;6.50;55.25;99107.22;1789220;80;21147;-73
2021/05/05 02:13:35;;;;;;;9.00;5.97;;;;;;;6.51;55.32;99098.38;1723707;83;21211;-73
2021/05/05 02:16:04;;;;;;;9.33;5.58;;;;;;;6.53;55.38;99097.82;1751055;81;21176;-73
2021/05/05 02:18:33;;;;;;;7.30;5.50;;;;;;;6.53;55.42;99093.43;1742773;81;21155;-73
2021/05/05 02:21:00;;;;;;;10.70;5.70;;;;;;;6.54;55.44;99085.06;1744346;81;21220;-73
2021/05/05 02:23:28;;;;;;;9.10;5.80;;;;;;;6.54;55.39;99087.20;1731182;83;21600;-73
2021/05/05 02:25:56;;;;;;;7.10;5.62;;;;;;;6.56;55.33;99089.77;1716792;83;21170;-73
2021/05/05 02:28:25;;;;;;;8.80;5.40;;;;;;;6.58;55.38;99083.92;1749688;81;21139;-73
2021/05/05 02:30:55;;;;;;;7.90;5.15;;;;;;;6.62;55.38;99081.45;1714764;83;21154;-73
2021/05/05 02:33:24;;;;;;;8.63;5.40;;;;;;;6.63;55.36;99081.83;1664122;84;21173;-73
2021/05/05 02:35:53;;;;;;;7.97;5.90;;;;;;;6.67;55.41;99084.63;1691163;84;21170;-73
2021/05/05 02:38:20;;;;;;;8.08;5.90;;;;;;;6.69;55.48;99072.73;1687497;84;21619;-73
2021/05/05 02:40:48;;;;;;;9.10;5.47;;;;;;;6.68;55.47;99066.61;1643538;85;21189;-73
2021/05/05 02:43:16;;;;;;;8.58;5.65;;;;;;;6.71;55.67;99062.48;1699172;83;21183;-73
2021/05/05 02:45:44;;;;;;;7.72;5.83;;;;;;;6.72;55.72;99073.83;1699962;84;21178;-74
2021/05/05 02:48:11;;;;;;;7.45;5.53;;;;;;;6.73;55.84;99063.21;1722600;83;21228;-75
2021/05/05 02:50:39;;;;;;;7.72;5.67;;;;;;;6.75;55.90;99066.22;1718872;83;21143;-73
2021/05/05 02:53:07;;;;;;;7.87;5.80;;;;;;;6.77;55.92;99074.37;1678641;85;21146;-73
2021/05/05 02:55:34;;;;;;;9.18;6.00;;;;;;;6.79;55.96;99065.06;1697591;84;21737;-73
2021/05/05 02:58:01;;;;;;;7.28;5.75;;;;;;;6.81;56.00;99067.96;1719161;83;21147;-73
2021/05/05 03:00:29;;;;;;;8.15;6.40;;;;;;;6.85;56.10;99062.04;1722022;83;22187;-74
2021/05/05 03:02:56;;;;;;;7.10;5.83;;;;;;;6.88;56.18;99061.85;1705395;83;21147;-73
2021/05/05 03:05:23;;;;;;;6.95;5.75;;;;;;;6.92;56.24;99058.07;1704298;83;21166;-73
2021/05/05 03:07:51;;;;;;;14.55;8.80;;;;;;;6.96;56.26;99062.17;1726208;83;21227;-73
2021/05/05 03:10:18;;;;;;;11.38;6.95;;;;;;;6.99;56.34;99058.02;1706133;83;21700;-73
2021/05/05 03:12:46;;;;;;;6.72;5.80;;;;;;;7.03;56.29;99054.26;1718622;83;21640;-73
2021/05/05 03:15:14;;;;;;;10.00;5.97;;;;;;;7.09;56.49;99058.73;1720614;83;21285;-74
2021/05/05 03:17:41;;;;;;;7.85;5.87;;;;;;;7.25;56.36;99054.13;1693465;83;21317;-73
2021/05/05 03:20:10;;;;;;;9.13;6.30;;;;;;;7.71;55.75;99052.28;1720602;83;21151;-72
2021/05/05 03:22:37;;;;;;;8.40;5.72;;;;;;;8.24;54.79;99047.27;1717582;83;21338;-73
2021/05/05 03:25:07;;;;;;;8.13;5.60;;;;;;;8.74;53.81;99050.31;1719069;83;21211;-73
2021/05/05 03:27:34;;;;;;;12.00;5.72;;;;;;;9.15;52.87;99049.83;1717049;83;21305;-74
2021/05/05 03:30:04;;;;;;;7.83;5.67;;;;;;;9.53;52.03;99045.23;1718841;83;21187;-74
2021/05/05 03:32:31;;;;;;;7.87;5.58;;;;;;;9.90;51.23;99048.96;1720555;83;21316;-73
2021/05/05 03:34:58;;;;;;;7.65;5.62;;;;;;;10.10;50.57;99045.21;1702438;83;21108;-74
2021/05/05 03:37:25;;;;;;;7.58;5.55;;;;;;;9.98;50.76;99043.91;1723134;83;21190;-73
2021/05/05 03:39:52;;;;;;;6.78;5.40;;;;;;;10.18;50.74;99045.45;1687624;84;21120;-73
2021/05/05 03:42:21;;;;;;;7.55;5.35;;;;;;;10.60;49.81;99035.05;1696678;83;21160;-73
2021/05/05 03:44:48;;;;;;;9.70;5.72;;;;;;;11.03;49.22;99035.09;1699702;84;21147;-73
2021/05/05 03:47:15;;;;;;;6.40;5.12;;;;;;;11.44;48.56;99042.66;1698519;84;21183;-74
2021/05/05 03:49:43;;;;;;;7.33;5.58;;;;;;;11.81;47.75;99036.84;1701692;84;21178;-73
2021/05/05 03:52:11;;;;;;;7.45;5.35;;;;;;;12.06;47.08;99029.41;1704967;84;21159;-73
2021/05/05 03:54:39;;;;;;;6.08;5.05;;;;;;;12.26;46.69;99026.33;1725249;83;21135;-74
2021/05/05 03:57:06;;;;;;;6.78;4.80;;;;;;;12.51;46.33;99026.30;1690400;85;21204;-73
2021/05/05 03:59:33;;;;;;;7.90;5.20;;;;;;;12.81;45.59;99029.80;1689940;83;21239;-73
2021/05/05 04:02:02;;;;;;;23.45;6.12;;;;;;;13.10;45.04;99026.29;1705690;84;21571;-73
2021/05/05 04:04:30;;;;;;;6.10;4.40;;;;;;;13.44;44.26;99025.84;1690870;85;21221;-73
2021/05/05 04:06:57;;;;;;;26.70;5.70;;;;;;;13.78;43.37;99024.47;1690130;84;22392;-74
2021/05/05 04:09:24;;;;;;;5.17;4.40;;;;;;;14.11;43.10;99020.38;1688929;84;21306;-73
2021/05/05 04:11:52;;;;;;;5.95;4.67;;;;;;;14.45;42.28;99018.42;1665812;86;21152;-74
2021/05/05 04:14:19;;;;;;;13.50;5.20;;;;;;;14.73;41.69;99017.03;1697199;84;21565;-74
2021/05/05 04:17:04;;;;;;;5.85;4.05;;;;;;;15.02;41.23;99018.61;1693144;84;21156;-74
2021/05/05 04:19:52;;;;;;;7.25;4.25;;;;;;;15.34;40.24;99016.66;1751519;82;21170;-74
2021/05/05 04:22:37;;;;;;;6.62;4.10;;;;;;;15.56;39.95;99013.98;1741655;82;21872;-75
2021/05/05 04:25:22;;;;;;;6.65;4.03;;;;;;;15.78;39.48;99003.77;1740186;82;21131;-75
2021/05/05 04:27:49;;;;;;;6.17;4.37;;;;;;;16.00;39.33;99010.37;1741259;82;21277;-75
2021/05/05 04:30:19;;;;;;;6.50;4.12;;;;;;;16.24;39.02;99006.61;1750176;82;21135;-74
2021/05/05 04:32:50;;;;;;;6.20;4.28;;;;;;;16.46;38.49;98999.33;1744652;82;21292;-74
2021/05/05 04:35:20;;;;;;;18.55;4.40;;;;;;;16.69;38.20;99000.03;1741813;82;21134;-76
2021/05/05 04:37:48;;;;;;;4.72;3.80;;;;;;;16.91;38.03;99001.73;1739969;82;21159;-75
2021/05/05 04:40:15;;;;;;;9.55;4.12;;;;;;;17.19;37.76;98999.02;1743463;82;21465;-74
2021/05/05 04:42:42;;;;;;;7.50;4.28;;;;;;;17.46;37.37;98991.62;1744817;81;21095;-75
2021/05/05 04:45:10;;;;;;;8.85;4.33;;;;;;;17.68;36.93;98988.70;1746477;82;21187;-75
2021/05/05 04:47:39;;;;;;;6.55;3.77;;;;;;;17.75;37.01;98984.86;1744343;82;21184;-75
2021/05/05 04:50:09;;;;;;;5.47;4.30;;;;;;;17.93;36.59;98983.76;1744145;82;21183;-75
2021/05/05 04:52:37;;;;;;;4.92;3.95;;;;;;;18.09;36.32;98987.72;1744102;82;21091;-74
2021/05/05 04:55:08;;;;;;;7.42;4.00;;;;;;;18.24;35.98;98985.66;1740714;82;21167;-74
2021/05/05 04:57:35;;;;;;;9.38;6.67;;;;;;;18.33;36.05;98981.40;1738333;82;22299;-75
2021/05/05 05:00:07;;;;;;;21.87;6.15;;;;;;;18.47;35.91;98983.82;1713755;84;21516;-75
2021/05/05 05:02:34;;;;;;;9.58;4.20;;;;;;;18.64;36.04;98978.35;1745040;82;21167;-75
2021/05/05 05:05:04;;;;;;;6.60;3.40;;;;;;;18.78;35.06;98968.19;1745104;81;21232;-74
2021/05/05 05:07:33;;;;;;;18.90;4.58;;;;;;;18.84;35.45;98968.81;1748392;81;21288;-74
2021/05/05 05:10:01;;;;;;;6.28;3.40;;;;;;;18.89;35.24;98972.30;1754549;82;21174;-74
2021/05/05 05:12:28;;;;;;;5.90;3.50;;;;;;;18.90;35.37;98965.11;1754853;82;21290;-74
2021/05/05 05:14:56;;;;;;;21.73;4.35;;;;;;;18.96;35.29;98959.88;1755388;82;21594;-74
2021/05/05 05:17:24;;;;;;;5.17;3.70;;;;;;;19.02;35.40;98958.31;1755529;82;21158;-74
2021/05/05 05:19:52;;;;;;;16.97;4.10;;;;;;;19.14;35.16;98968.92;1726018;82;21321;-75
2021/05/05 05:22:19;;;;;;;4.35;3.65;;;;;;;19.25;34.78;98961.44;1755467;82;21193;-75
2021/05/05 05:24:46;;;;;;;5.40;3.00;;;;;;;19.28;35.42;98969.10;1755934;82;21602;-75
2021/05/05 05:27:13;;;;;;;7.85;3.37;;;;;;;19.38;35.01;98968.32;1755742;82;21198;-75
2021/05/05 05:29:41;;;;;;;8.45;3.42;;;;;;;19.38;34.96;98979.05;1755528;82;21166;-75
2021/05/05 05:32:08;;;;;;;27.90;4.72;;;;;;;19.34;35.16;98964.35;1755463;82;21190;-76
2021/05/05 05:34:36;;;;;;;5.55;4.25;;;;;;;19.25;34.90;98963.60;1755347;82;21127;-75
2021/05/05 05:37:04;;;;;;;7.22;4.17;;;;;;;19.04;35.00;98952.27;1686754;85;21170;-75
2021/05/05 05:39:31;;;;;;;8.75;3.50;;;;;;;18.79;35.82;98953.78;1692052;84;21192;-75
2021/05/05 05:41:59;;;;;;;5.70;3.42;;;;;;;18.56;36.25;98949.80;1755424;82;21182;-76
2021/05/05 05:44:26;;;;;;;6.95;3.10;;;;;;;18.33;37.14;98945.78;1755491;82;21178;-74
2021/05/05 05:46:53;;;;;;;6.70;3.22;;;;;;;18.18;37.51;98937.19;1755416;82;21614;-75
2021/05/05 05:49:21;;;;;;;5.33;3.25;;;;;;;18.10;37.96;98937.74;1754751;82;21114;-76
2021/05/05 05:51:48;;;;;;;5.62;3.27;;;;;;;18.09;37.57;98942.23;1747891;82;21190;-76
2021/05/05 05:54:15;;;;;;;4.53;2.80;;;;;;;18.00;37.87;98927.25;1748888;82;21132;-76
2021/05/05 05:56:43;;;;;;;6.83;3.27;;;;;;;17.93;37.92;98930.27;1748359;82;21187;-77
2021/05/05 05:59:10;;;;;;;14.65;3.47;;;;;;;17.93;38.66;98923.58;1747941;82;21284;-76
2021/05/05 06:01:38;;;;;;;4.67;2.98;;;;;;;18.01;38.99;98922.23;1748880;82;21158;-76
2021/05/05 06:04:06;;;;;;;11.00;3.58;;;;;;;18.14;38.56;98926.48;1749442;82;21171;-76
2021/05/05 06:06:36;;;;;;;3.75;3.10;;;;;;;18.23;39.29;98901.03;1746865;81;21147;-77
2021/05/05 06:09:06;;;;;;;5.37;3.40;;;;;;;18.30;39.28;98904.15;1740965;81;21324;-76
2021/05/05 06:11:33;;;;;;;4.40;3.10;;;;;;;18.32;39.69;98918.69;1740097;82;21171;-77
2021/05/05 06:14:02;;;;;;;5.12;2.92;;;;;;;18.35;39.91;98914.33;1739998;82;21301;-77
2021/05/05 06:16:29;;;;;;;10.43;3.47;;;;;;;18.42;40.08;98908.56;1740245;82;21187;-76
2021/05/05 06:18:57;;;;;;;3.62;3.10;;;;;;;18.44;40.09;98916.41;1740690;82;21310;-78
2021/05/05 06:21:25;;;;;;;12.20;3.40;;;;;;;18.47;40.51;98912.88;1741462;82;21309;-78
2021/05/05 06:23:53;;;;;;;4.83;3.25;;;;;;;18.48;40.36;98921.23;1741523;82;21159;-77
2021/05/05 06:26:20;;;;;;;5.10;3.12;;;;;;;18.47;40.38;98923.59;1741553;82;21199;-77
2021/05/05 06:28:49;;;;;;;5.75;2.80;;;;;;;18.42;40.69;98914.44;1741996;82;21321;-76
2021/05/05 06:31:16;;;;;;;7.72;3.60;;;;;;;18.33;41.10;98919.84;1741566;81;21226;-77
2021/05/05 06:33:43;;;;;;;4.42;3.02;;;;;;;18.29;41.51;98926.56;1741412;82;21818;-76
2021/05/05 06:36:13;;;;;;;4.22;3.35;;;;;;;18.23;41.61;98921.92;1741497;82;21175;-77
2021/05/05 06:38:40;;;;;;;5.85;3.02;;;;;;;18.23;42.17;98919.24;1743218;82;21256;-77
2021/05/05 06:41:07;;;;;;;6.30;3.10;;;;;;;18.28;41.96;98917.39;1745417;82;21608;-77
2021/05/05 06:43:36;;;;;;;5.53;3.20;;;;;;;18.27;42.58;98922.41;1742500;80;21182;-77
2021/05/05 06:46:03;;;;;;;4.15;3.10;;;;;;;18.31;42.82;98919.69;1740701;82;21187;-76
2021/05/05 06:48:31;;;;;;;5.15;3.05;;;;;;;18.37;42.81;98914.97;1743083;82;21754;-75
2021/05/05 06:50:58;;;;;;;25.70;4.70;;;;;;;18.44;43.58;98907.89;1749899;81;21147;-76
2021/05/05 06:53:25;;;;;;;4.08;2.72;;;;;;;18.59;43.25;98908.44;1742450;82;21311;-74
2021/05/05 06:55:54;;;;;;;4.80;2.87;;;;;;;18.70;43.21;98909.34;1749223;81;21444;-76
2021/05/05 06:58:22;;;;;;;6.03;3.42;;;;;;;18.71;42.99;98912.84;1743016;81;21309;-73
2021/05/05 07:00:50;;;;;;;8.85;3.25;;;;;;;18.62;43.39;98904.90;1744736;82;21296;-76
2021/05/05 07:03:17;;;;;;;9.05;3.30;;;;;;;18.61;43.84;98903.75;1750111;81;21110;-76
2021/05/05 07:05:44;;;;;;;5.95;3.40;;;;;;;18.68;43.63;98908.69;1745255;82;21146;-76
2021/05/05 07:08:11;;;;;;;6.62;3.33;;;;;;;18.68;43.74;98906.00;1748571;82;21224;-77
2021/05/05 07:12:40;;;;;;;5.33;3.25;;;;;;;18.79;44.20;98904.75;1818448;79;23038;-76
2021/05/05 07:15:08;;;;;;;5.30;3.25;;;;;;;18.82;43.65;98899.87;1780385;79;21723;-75
2021/05/05 07:17:36;;;;;;;5.05;3.00;;;;;;;18.74;43.75;98907.97;1782534;80;21289;-76
2021/05/05 07:20:04;;;;;;;7.75;3.27;;;;;;;18.63;43.78;98906.57;1781904;79;21176;-76
2021/05/05 07:22:31;;;;;;;5.47;3.37;;;;;;;18.57;44.31;98895.72;1762862;81;21679;-76
2021/05/05 07:24:58;;;;;;;7.03;3.30;;;;;;;18.57;44.35;98889.03;1750257;81;21184;-76
2021/05/05 07:27:26;;;;;;;7.58;3.55;;;;;;;18.65;44.79;98888.98;1716058;82;21178;-74
2021/05/05 07:29:53;;;;;;;5.37;3.50;;;;;;;18.76;44.74;98897.91;1738594;81;21589;-77
2021/05/05 07:32:20;;;;;;;4.17;3.15;;;;;;;18.80;44.63;98890.36;1748587;81;21118;-76
2021/05/05 07:34:48;;;;;;;5.30;3.50;;;;;;;18.88;44.89;98890.26;1752377;80;21183;-74
2021/05/05 07:37:26;;;;;;;7.67;3.30;;;;;;;18.99;44.57;98891.70;1748086;81;21191;-76
2021/05/05 07:40:20;;;;;;;5.20;3.08;;;;;;;19.09;44.67;98880.69;1749781;82;21191;-76
2021/05/05 07:45:34;;;;;;;23.40;4.35;;;;;;;19.36;44.24;98892.62;1748122;81;21296;-77
2021/05/05 07:47:54;;;;;;;6.28;3.27;;;;;;;19.48;44.16;98889.78;1758087;81;21182;-74
2021/05/05 07:50:22;;;;;;;8.33;3.80;;;;;;;19.52;44.29;98888.08;1744680;82;21123;-75
2021/05/05 07:52:50;;;;;;;6.12;3.83;;;;;;;19.56;43.86;98886.68;1743486;81;21147;-76
2021/05/05 07:55:16;;;;;;;8.40;3.92;;;;;;;19.54;44.06;98886.02;1717916;83;21194;-73
2021/05/05 07:57:46;;;;;;;9.75;3.98;;;;;;;19.52;44.64;98885.40;1696161;84;21306;-74
2021/05/05 08:00:13;;;;;;;5.62;3.83;;;;;;;19.57;43.58;98901.76;1690501;84;21197;-75
2021/05/05 08:02:42;;;;;;;7.03;3.80;;;;;;;19.51;43.60;98885.89;1699715;84;21297;-75
2021/05/05 08:05:11;;;;;;;6.70;3.87;;;;;;;19.36;43.77;98889.95;1694323;84;21189;-76
2021/05/05 08:07:40;;;;;;;7.58;3.80;;;;;;;19.16;44.67;98886.47;1690649;84;21142;-75
2021/05/05 08:10:10;;;;;;;7.95;4.25;;;;;;;19.06;45.67;98891.80;1687831;84;21189;-75
2021/05/05 08:12:38;;;;;;;7.67;4.40;;;;;;;19.06;45.22;98879.22;1670989;84;21162;-75
2021/05/05 08:15:07;;;;;;;41.60;6.85;;;;;;;19.15;44.76;98874.59;1678759;85;21169;-76
2021/05/05 08:17:34;;;;;;;7.87;3.98;;;;;;;19.17;44.60;98873.92;1674539;85;21595;-75
2021/05/05 08:20:05;;;;;;;4.75;3.70;;;;;;;19.18;44.19;98879.58;1651168;87;21140;-75
2021/05/05 08:22:33;;;;;;;9.00;4.33;;;;;;;19.14;44.29;98869.77;1666115;85;21198;-76
2021/05/05 08:25:01;;;;;;;6.22;4.15;;;;;;;19.08;43.86;98870.49;1669020;85;21180;-76
2021/05/05 08:27:28;;;;;;;7.30;5.62;;;;;;;18.98;43.87;98864.06;1671833;84;21169;-76
2021/05/05 08:29:55;;;;;;;9.53;4.60;;;;;;;18.90;43.67;98867.33;1717430;82;21178;-75
2021/05/05 08:32:22;;;;;;;7.22;4.20;;;;;;;18.79;43.79;98868.08;1720986;82;21699;-75
2021/05/05 08:34:51;;;;;;;11.63;5.12;;;;;;;18.76;44.25;98867.60;1735915;81;21711;-74
2021/05/05 08:37:19;;;;;;;5.90;4.37;;;;;;;18.77;43.63;98860.75;1718786;82;21167;-76
2021/05/05 08:39:46;;;;;;;40.10;6.67;;;;;;;18.71;43.88;98864.16;1746963;81;21148;-76
2021/05/05 08:42:16;;;;;;;7.50;4.05;;;;;;;18.63;45.20;98862.88;1738125;82;21111;-77
2021/05/05 08:44:47;;;;;;;7.05;4.30;;;;;;;18.61;45.28;98863.58;1746009;81;21126;-77
2021/05/05 08:47:16;;;;;;;8.80;4.22;;;;;;;18.66;44.87;98868.70;1731823;81;21686;-77
2021/05/05 08:49:45;;;;;;;6.47;4.90;;;;;;;18.70;44.85;98859.80;1735275;82;21195;-77
2021/05/05 08:52:13;;;;;;;5.97;4.90;;;;;;;18.74;44.48;98853.06;1739077;82;21155;-77
2021/05/05 08:54:42;;;;;;;7.90;4.50;;;;;;;18.76;45.26;98859.08;1743390;81;21187;-77
2021/05/05 08:57:09;;;;;;;14.90;5.42;;;;;;;18.86;45.67;98860.13;1758493;81;21174;-76
2021/05/05 08:59:39;;;;;;;6.35;4.33;;;;;;;18.97;45.31;98858.37;1738076;81;22147;-76
2021/05/05 09:02:06;;;;;;;9.80;4.72;;;;;;;19.06;44.20;98857.78;1744080;81;21313;-76
2021/05/05 09:04:34;;;;;;;13.83;5.65;;;;;;;19.16;43.89;98858.84;1737778;82;21163;-76
2021/05/05 09:07:01;;;;;;;12.98;5.15;;;;;;;19.24;43.82;98848.54;1734783;81;21143;-76
2021/05/05 09:09:44;;;;;;;6.53;4.30;;;;;;;19.29;43.86;98854.17;1746793;81;21550;-76
2021/05/05 09:15:15;;;;;;;9.28;5.28;;;;;;;19.43;44.12;98853.31;1733379;82;22295;-76
2021/05/05 09:17:48;;;;;;;8.80;5.28;;;;;;;19.52;43.88;98839.30;1722227;82;21630;-76
2021/05/05 09:20:24;;;;;;;9.38;5.60;;;;;;;19.60;43.42;98837.01;1727746;82;21169;-75
2021/05/05 09:23:04;;;;;;;6.67;4.62;;;;;;;19.66;43.44;98848.33;1736450;82;21169;-76
2021/05/05 09:25:37;;;;;;;8.28;5.20;;;;;;;19.71;43.80;98835.17;1735531;82;21166;-77
2021/05/05 09:28:16;;;;;;;7.17;4.85;;;;;;;19.83;41.90;98836.05;1730151;82;21129;-75
2021/05/05 09:30:47;;;;;;;7.53;5.20;;;;;;;19.85;41.53;98834.84;1738837;81;21197;-75
2021/05/05 09:33:27;;;;;;;7.42;4.87;;;;;;;19.81;41.88;98824.97;1746248;81;21166;-75
2021/05/05 09:35:58;;;;;;;6.70;4.05;;;;;;;19.85;42.57;98824.60;1754746;80;21185;-75
2021/05/05 09:38:49;;;;;;;11.33;4.28;;;;;;;19.83;41.92;98809.23;1712214;82;21196;-75
2021/05/05 09:41:27;;;;;;;7.45;4.60;;;;;;;19.83;42.05;98819.95;1717650;81;21178;-75
2021/05/05 09:44:06;;;;;;;7.37;4.40;;;;;;;19.86;41.92;98816.39;1686911;84;21634;-75
2021/05/05 09:46:50;;;;;;;7.22;4.20;;;;;;;19.88;42.20;98806.80;1720087;82;21162;-75
2021/05/05 09:49:34;;;;;;;7.17;4.30;;;;;;;19.88;41.92;98806.28;1749048;81;21532;-75
2021/05/05 09:52:19;;;;;;;19.40;5.30;;;;;;;19.87;42.46;98806.48;1745480;81;21161;-74
2021/05/05 09:55:02;;;;;;;16.75;5.15;;;;;;;19.97;41.72;98802.47;1715894;82;21180;-75
2021/05/05 09:57:33;;;;;;;26.33;5.95;;;;;;;20.06;41.68;98808.50;1745872;81;21137;-74
2021/05/05 10:00:13;;;;;;;9.88;3.95;;;;;;;20.13;41.06;98805.91;1757612;81;21308;-74
2021/05/05 10:03:01;;;;;;;11.53;4.92;;;;;;;20.24;41.37;98800.51;1809023;77;28237;-75
2021/05/05 10:05:31;;;;;;;6.12;3.80;;;;;;;20.39;40.99;98806.62;1793136;78;21131;-76
2021/05/05 10:08:06;;;;;;;6.22;3.80;;;;;;;20.51;40.71;98784.60;1690651;83;21325;-76
2021/05/05 10:10:38;;;;;;;12.18;3.95;;;;;;;20.46;40.16;98796.77;1743209;82;21174;-76
2021/05/05 10:13:08;;;;;;;18.00;4.40;;;;;;;20.43;40.54;98795.80;1756534;80;21313;-75
2021/05/05 10:15:39;;;;;;;6.42;3.27;;;;;;;20.55;38.94;98797.95;1752484;80;21155;-73
2021/05/05 10:18:13;;;;;;;8.83;3.70;;;;;;;20.58;38.46;98778.77;1730566;81;21215;-75
2021/05/05 10:20:43;;;;;;;14.45;4.00;;;;;;;20.56;39.60;98780.32;1746650;81;21679;-76
2021/05/05 10:23:10;;;;;;;8.58;3.37;;;;;;;20.64;38.87;98780.67;1735201;81;21154;-76
2021/05/05 10:25:41;;;;;;;5.10;3.62;;;;;;;20.69;38.51;98786.28;1704877;81;21223;-75
2021/05/05 10:28:07;;;;;;;30.20;5.67;;;;;;;20.74;38.96;98781.18;1738548;81;21289;-75
2021/05/05 10:30:35;;;;;;;33.85;5.95;;;;;;;20.75;37.68;98793.56;1708507;83;21637;-75
2021/05/05 10:33:08;;;;;;;6.50;3.15;;;;;;;20.71;38.38;98788.27;1704383;84;21135;-75
2021/05/05 10:35:35;;;;;;;8.25;3.50;;;;;;;20.71;38.16;98785.59;1707013;83;21567;-76
2021/05/05 10:38:02;;;;;;;10.08;4.37;;;;;;;20.76;38.13;98779.63;1708260;83;21580;-75
2021/05/05 10:40:35;;;;;;;5.70;3.80;;;;;;;20.75;38.88;98770.72;1705419;84;21167;-76
2021/05/05 10:43:05;;;;;;;11.05;3.83;;;;;;;20.76;37.11;98779.11;1707908;83;21298;-75
2021/05/05 10:45:43;;;;;;;8.98;3.60;;;;;;;20.77;36.97;98789.36;1705439;82;21609;-75
2021/05/05 10:48:18;;;;;;;12.65;3.55;;;;;;;20.81;37.58;98785.73;1696215;82;21156;-76
2021/05/05 10:50:55;;;;;;;6.28;3.27;;;;;;;20.83;37.15;98783.20;1726262;81;21612;-74
2021/05/05 10:53:26;;;;;;;14.95;4.00;;;;;;;20.83;37.33;98770.26;1725904;82;21313;-75
2021/05/05 10:55:59;;;;;;;16.23;3.98;;;;;;;20.76;37.82;98768.89;1719520;81;21179;-74
2021/05/05 10:58:31;;;;;;;12.03;3.85;;;;;;;20.77;37.40;98779.43;1727466;83;21175;-75
2021/05/05 11:01:05;;;;;;;4.08;2.90;;;;;;;20.84;36.28;98775.95;1728379;82;21164;-76
2021/05/05 11:03:49;;;;;;;6.65;3.10;;;;;;;20.84;35.69;98759.83;1701933;83;21158;-76
2021/05/05 11:06:38;;;;;;;26.57;4.22;;;;;;;20.74;35.87;98769.09;1730018;82;21588;-76
2021/05/05 11:09:16;;;;;;;10.35;3.52;;;;;;;20.67;35.95;98773.55;1710597;83;21140;-75
2021/05/05 11:11:48;;;;;;;8.15;3.00;;;;;;;20.71;35.06;98767.31;1704482;83;21143;-76
2021/05/05 11:14:31;;;;;;;40.58;5.97;;;;;;;20.74;34.80;98765.06;1731875;82;21463;-76
2021/05/05 11:17:05;;;;;;;8.00;3.62;;;;;;;20.76;34.59;98768.89;1706734;83;21135;-75
2021/05/05 11:19:42;;;;;;;6.07;3.20;;;;;;;20.77;35.25;98764.66;1716669;83;21258;-75
2021/05/05 11:22:32;;;;;;;7.55;3.10;;;;;;;20.76;34.81;98767.02;1695411;83;21854;-75
2021/05/05 11:24:56;;;;;;;3.90;2.98;;;;;;;20.71;34.94;98766.78;1696878;84;21196;-75
2021/05/05 11:27:47;;;;;;;22.87;3.92;;;;;;;20.67;34.69;98754.75;1721376;83;21655;-75
2021/05/05 11:30:39;;;;;;;7.50;2.80;;;;;;;20.63;34.36;98746.78;1721455;83;21199;-75
2021/05/05 11:33:08;;;;;;;5.33;2.72;;;;;;;20.61;33.30;98760.91;1747571;82;21175;-74
2021/05/05 11:35:37;;;;;;;5.53;2.80;;;;;;;20.61;34.22;98755.53;1726045;82;21190;-75
2021/05/05 11:38:19;;;;;;;8.55;5.33;;;;;;;20.68;33.69;98749.70;1730427;82;21706;-75
2021/05/05 11:41:00;;;;;;;7.42;3.70;;;;;;;20.72;33.79;98746.14;1699414;83;21616;-75
2021/05/05 11:43:29;;;;;;;5.55;2.83;;;;;;;20.76;33.43;98748.21;1706965;83;21320;-75
2021/05/05 11:46:00;;;;;;;6.95;3.45;;;;;;;20.83;33.22;98750.95;1696358;83;21153;-74
2021/05/05 11:48:35;;;;;;;10.08;3.20;;;;;;;20.89;32.38;98744.76;1728325;82;21286;-74
2021/05/05 11:51:20;;;;;;;9.50;3.17;;;;;;;20.93;32.73;98751.91;1726028;83;21313;-74
2021/05/05 11:53:48;;;;;;;7.62;2.60;;;;;;;20.97;32.07;98747.79;1716215;82;21337;-75